Time;durP1;ratioP1;P1;durP2;ratioP2;P2;SDS_P1;SDS_P2;PMS_P1;PMS_P2;Temp;Humidity;BMP_temperature;BMP_pressure;BME280_temperature;BME280_humidity;BME280_pressure;Samples;Min_cycle;Max_cycle;Signal;HPM_P1;HPM_P2
2023/09/25 00:01:13;;;;;;;1.05;0.73;;;15.90;70.50;;;;;;5067292;28;20024;-70
2023/09/25 00:03:39;;;;;;;0.65;0.60;;;15.90;70.60;;;;;;5062575;28;20032;-69
2023/09/25 00:06:05;;;;;;;0.80;0.80;;;15.90;70.70;;;;;;5061783;28;20034;-69
2023/09/25 00:08:31;;;;;;;0.77;0.70;;;15.80;70.60;;;;;;5062109;28;20025;-70
2023/09/25 00:10:57;;;;;;;2.17;0.73;;;15.80;70.60;;;;;;5061515;28;20036;-69
2023/09/25 00:13:23;;;;;;;1.08;0.63;;;15.80;70.70;;;;;;5063791;28;20032;-70
2023/09/25 00:15:49;;;;;;;1.00;0.50;;;15.70;70.70;;;;;;5068340;28;20029;-69
2023/09/25 00:18:15;;;;;;;1.08;0.75;;;15.80;70.80;;;;;;5066900;28;20055;-69
2023/09/25 00:20:41;;;;;;;1.55;0.68;;;15.70;70.70;;;;;;5046558;28;20037;-70
2023/09/25 00:23:06;;;;;;;1.02;0.60;;;15.70;70.80;;;;;;5064248;28;20112;-70
2023/09/25 00:25:32;;;;;;;0.80;0.55;;;15.70;70.80;;;;;;5049942;28;20584;-70
2023/09/25 00:27:59;;;;;;;0.57;0.40;;;15.60;70.90;;;;;;5047155;28;20017;-70
2023/09/25 00:30:25;;;;;;;0.50;0.50;;;15.60;70.90;;;;;;5050078;28;20039;-69
2023/09/25 00:32:51;;;;;;;1.70;0.77;;;15.60;71.00;;;;;;5064916;28;20057;-68
2023/09/25 00:35:19;;;;;;;0.82;0.50;;;15.60;71.10;;;;;;5067982;28;20032;-69
2023/09/25 00:37:46;;;;;;;4.40;0.88;;;15.50;71.20;;;;;;5067232;28;20083;-70
2023/09/25 00:40:18;;;;;;;0.98;0.50;;;15.50;71.30;;;;;;5064048;28;20028;-70
2023/09/25 00:42:49;;;;;;;;;;;15.50;71.40;;;;;;5045807;28;20108;-67
2023/09/25 00:45:15;;;;;;;2.47;0.40;;;15.40;71.50;;;;;;5059471;28;20385;-67
2023/09/25 00:47:42;;;;;;;0.57;0.40;;;15.40;71.60;;;;;;5065645;28;20066;-67
2023/09/25 00:50:09;;;;;;;0.60;0.57;;;15.40;71.60;;;;;;5063000;28;20040;-67
2023/09/25 00:52:37;;;;;;;0.65;0.65;;;15.40;71.60;;;;;;5067675;28;20044;-67
2023/09/25 00:55:04;;;;;;;0.90;0.50;;;15.40;71.60;;;;;;5050939;28;20025;-69
2023/09/25 00:57:31;;;;;;;3.00;0.47;;;15.40;71.60;;;;;;5068318;28;20056;-70
2023/09/25 00:59:56;;;;;;;0.88;0.57;;;15.40;71.60;;;;;;5067289;28;20031;-67
2023/09/25 01:02:22;;;;;;;0.77;0.63;;;15.40;71.50;;;;;;5048518;28;20033;-67
2023/09/25 01:04:48;;;;;;;0.60;0.60;;;15.40;71.60;;;;;;5057561;28;20499;-67
2023/09/25 01:07:17;;;;;;;0.40;0.40;;;15.40;71.70;;;;;;5048581;28;20036;-67
2023/09/25 01:09:43;;;;;;;1.13;0.85;;;15.40;71.60;;;;;;5046745;28;20446;-67
2023/09/25 01:12:08;;;;;;;0.82;0.70;;;15.40;71.60;;;;;;5061581;28;20033;-70
2023/09/25 01:14:34;;;;;;;0.77;0.50;;;15.40;71.60;;;;;;5064571;28;20036;-69
2023/09/25 01:17:00;;;;;;;1.25;0.60;;;15.40;71.70;;;;;;5041522;28;20017;-69
2023/09/25 01:19:26;;;;;;;3.42;0.80;;;15.40;71.70;;;;;;5047427;28;20031;-69
2023/09/25 01:21:53;;;;;;;0.57;0.55;;;15.40;71.70;;;;;;5064524;28;20390;-69
2023/09/25 01:24:18;;;;;;;1.23;0.60;;;15.40;71.80;;;;;;5062792;28;20033;-69
2023/09/25 01:26:44;;;;;;;1.08;0.60;;;15.40;71.80;;;;;;5064045;28;20113;-70
2023/09/25 01:29:10;;;;;;;0.68;0.55;;;15.40;71.80;;;;;;5065169;28;20029;-67
2023/09/25 01:31:36;;;;;;;2.53;0.63;;;15.40;71.70;;;;;;5059072;28;20025;-67
2023/09/25 01:34:01;;;;;;;0.40;0.40;;;15.40;71.60;;;;;;5065496;28;20044;-70
2023/09/25 01:36:27;;;;;;;0.68;0.50;;;15.40;71.50;;;;;;5053776;28;20109;-67
2023/09/25 01:38:53;;;;;;;0.50;0.50;;;15.40;71.60;;;;;;5063808;28;20063;-67
2023/09/25 01:41:18;;;;;;;1.23;0.50;;;15.40;71.60;;;;;;5049375;28;20431;-67
2023/09/25 01:43:44;;;;;;;0.95;0.55;;;15.40;71.70;;;;;;5065286;28;20495;-67
2023/09/25 01:46:10;;;;;;;0.77;0.50;;;15.40;71.70;;;;;;5067369;28;20040;-69
2023/09/25 01:48:36;;;;;;;0.85;0.77;;;15.30;71.70;;;;;;5068405;28;20036;-69
2023/09/25 01:51:11;;;;;;;1.85;0.60;;;15.30;71.80;;;;;;5068825;28;20490;-70
2023/09/25 01:53:37;;;;;;;0.73;0.73;;;15.30;71.80;;;;;;5063021;28;20101;-69
2023/09/25 01:56:15;;;;;;;0.40;0.40;;;15.30;71.90;;;;;;5067386;28;20055;-69
2023/09/25 01:58:41;;;;;;;1.10;0.50;;;15.30;71.90;;;;;;5064219;28;20066;-69
2023/09/25 02:01:07;;;;;;;0.45;0.45;;;15.20;72.10;;;;;;5069750;28;20116;-69
2023/09/25 02:03:32;;;;;;;1.27;0.68;;;15.20;72.20;;;;;;5068006;28;20615;-69
2023/09/25 02:05:58;;;;;;;1.05;0.75;;;15.10;72.20;;;;;;5058521;28;20387;-69
2023/09/25 02:08:24;;;;;;;0.82;0.50;;;15.10;72.20;;;;;;5068373;28;20044;-69
2023/09/25 02:10:49;;;;;;;1.35;0.60;;;15.10;72.30;;;;;;5061186;28;20110;-67
2023/09/25 02:13:15;;;;;;;1.00;0.30;;;15.10;72.40;;;;;;5065975;28;20424;-67
2023/09/25 02:15:41;;;;;;;0.40;0.40;;;15.00;72.50;;;;;;5067958;28;20032;-69
2023/09/25 02:18:08;;;;;;;0.90;0.43;;;15.00;72.50;;;;;;5052115;28;20016;-70
2023/09/25 02:20:34;;;;;;;1.95;0.63;;;15.00;72.60;;;;;;5051301;28;20068;-69
2023/09/25 02:23:00;;;;;;;1.88;0.88;;;14.90;72.50;;;;;;5067371;28;20024;-69
2023/09/25 02:25:25;;;;;;;1.33;0.77;;;14.90;72.70;;;;;;5065170;28;20506;-70
2023/09/25 02:27:51;;;;;;;0.75;0.55;;;14.90;72.80;;;;;;5066929;28;20080;-69
2023/09/25 02:30:17;;;;;;;0.55;0.52;;;14.90;72.90;;;;;;5068620;28;20032;-70
2023/09/25 02:32:43;;;;;;;0.52;0.47;;;14.80;72.90;;;;;;5051143;28;20518;-69
2023/09/25 02:35:09;;;;;;;0.38;0.38;;;14.80;72.90;;;;;;5069149;28;20040;-70
2023/09/25 02:37:36;;;;;;;5.47;0.95;;;14.70;73.00;;;;;;5061382;28;20057;-69
2023/09/25 02:40:03;;;;;;;0.60;0.57;;;14.70;73.10;;;;;;5067361;28;20032;-70
2023/09/25 02:42:29;;;;;;;1.02;0.60;;;14.70;73.30;;;;;;5070341;28;20032;-69
2023/09/25 02:44:54;;;;;;;0.50;0.50;;;14.60;73.40;;;;;;5067932;28;20040;-69
2023/09/25 02:47:20;;;;;;;0.65;0.65;;;14.70;73.40;;;;;;5069080;28;20506;-70
2023/09/25 02:49:46;;;;;;;0.60;0.60;;;14.70;73.50;;;;;;5067558;28;20036;-70
2023/09/25 02:52:11;;;;;;;1.55;0.50;;;14.70;73.50;;;;;;5069556;28;20039;-69
2023/09/25 02:54:37;;;;;;;0.60;0.60;;;14.60;73.50;;;;;;5064510;28;20119;-69
2023/09/25 02:57:03;;;;;;;0.75;0.55;;;14.60;73.50;;;;;;5067399;28;20059;-67
2023/09/25 02:59:29;;;;;;;0.75;0.30;;;14.60;73.60;;;;;;5069019;28;20451;-70
2023/09/25 03:01:55;;;;;;;0.70;0.68;;;14.60;73.70;;;;;;5065022;28;20052;-69
2023/09/25 03:04:21;;;;;;;1.08;0.73;;;14.60;73.80;;;;;;5068527;28;20435;-69
2023/09/25 03:06:47;;;;;;;1.25;0.93;;;14.60;73.90;;;;;;5066683;28;20501;-69
2023/09/25 03:09:12;;;;;;;2.60;0.85;;;14.60;73.90;;;;;;5054475;28;20028;-69
2023/09/25 03:11:38;;;;;;;1.08;0.47;;;14.60;73.90;;;;;;5051726;28;20037;-70
2023/09/25 03:14:04;;;;;;;0.80;0.60;;;14.60;73.90;;;;;;5051828;28;20052;-69
2023/09/25 03:16:30;;;;;;;1.10;0.40;;;14.50;73.90;;;;;;5067383;28;20051;-69
2023/09/25 03:18:56;;;;;;;0.40;0.40;;;14.50;73.80;;;;;;5065330;28;20544;-66
2023/09/25 03:21:22;;;;;;;0.65;0.50;;;14.50;73.90;;;;;;5051021;28;20032;-67
2023/09/25 03:23:48;;;;;;;1.20;0.68;;;14.50;74.00;;;;;;5060197;28;20086;-69
2023/09/25 03:26:15;;;;;;;1.55;0.68;;;14.50;74.10;;;;;;5046453;28;20059;-69
2023/09/25 03:28:41;;;;;;;0.82;0.50;;;14.50;74.10;;;;;;5043205;28;20517;-69
2023/09/25 03:31:07;;;;;;;1.73;0.50;;;14.50;74.20;;;;;;5066042;28;20052;-70
2023/09/25 03:33:32;;;;;;;8.48;0.98;;;14.50;74.20;;;;;;5067611;28;20072;-67
2023/09/25 03:35:58;;;;;;;0.52;0.52;;;14.50;74.20;;;;;;5066581;28;20025;-67
2023/09/25 03:38:24;;;;;;;1.38;1.13;;;14.40;74.20;;;;;;5066709;28;20134;-67
2023/09/25 03:40:49;;;;;;;0.95;0.60;;;14.40;74.40;;;;;;5046978;28;20033;-67
2023/09/25 03:43:15;;;;;;;2.20;1.00;;;14.40;74.50;;;;;;5046400;28;20046;-67
2023/09/25 03:45:41;;;;;;;0.50;0.50;;;14.40;74.50;;;;;;5056429;28;20041;-68
2023/09/25 03:48:07;;;;;;;1.33;0.57;;;14.40;74.60;;;;;;5059181;28;20024;-69
2023/09/25 03:50:32;;;;;;;1.48;0.40;;;14.30;74.60;;;;;;5045276;28;20051;-69
2023/09/25 03:53:00;;;;;;;0.95;0.80;;;14.30;74.60;;;;;;5061751;28;20036;-70
2023/09/25 03:55:26;;;;;;;0.80;0.60;;;14.30;74.70;;;;;;5045916;28;20029;-69
2023/09/25 03:57:52;;;;;;;0.52;0.52;;;14.30;74.70;;;;;;5053127;28;20040;-69
2023/09/25 04:00:17;;;;;;;0.70;0.43;;;14.30;74.80;;;;;;5055743;28;20039;-69
2023/09/25 04:02:43;;;;;;;0.73;0.60;;;14.20;74.70;;;;;;5061013;28;20116;-68
2023/09/25 04:05:12;;;;;;;1.35;0.80;;;14.20;74.80;;;;;;5054293;28;20055;-67
2023/09/25 04:07:38;;;;;;;0.57;0.50;;;14.20;75.00;;;;;;5057429;28;20395;-67
2023/09/25 04:10:07;;;;;;;0.57;0.57;;;14.20;75.20;;;;;;5064018;28;20044;-67
2023/09/25 04:12:34;;;;;;;3.38;0.90;;;14.20;75.20;;;;;;5060810;28;20032;-67
2023/09/25 04:15:00;;;;;;;1.98;0.85;;;14.20;75.20;;;;;;5040355;28;20059;-67
2023/09/25 04:17:28;;;;;;;0.55;0.52;;;14.20;75.30;;;;;;5063398;28;20029;-67
2023/09/25 04:19:54;;;;;;;0.50;0.50;;;14.20;75.30;;;;;;5060220;28;20459;-67
2023/09/25 04:22:20;;;;;;;0.75;0.75;;;14.20;75.30;;;;;;5054400;28;20352;-67
2023/09/25 04:24:46;;;;;;;1.05;0.60;;;14.20;75.20;;;;;;5063401;28;20426;-69
2023/09/25 04:27:12;;;;;;;0.77;0.60;;;14.20;75.20;;;;;;5057531;28;20475;-69
2023/09/25 04:29:38;;;;;;;0.60;0.60;;;14.20;75.20;;;;;;5059744;28;20029;-69
2023/09/25 04:32:06;;;;;;;0.68;0.60;;;14.20;75.30;;;;;;5062574;28;20536;-70
2023/09/25 04:34:35;;;;;;;1.10;0.60;;;14.20;75.40;;;;;;5020688;28;20029;-69
2023/09/25 04:37:01;;;;;;;3.13;0.60;;;14.30;75.40;;;;;;5059377;28;20029;-67
2023/09/25 04:39:27;;;;;;;0.68;0.68;;;14.30;75.40;;;;;;5055908;28;20033;-67
2023/09/25 04:41:53;;;;;;;1.20;0.55;;;14.30;75.30;;;;;;5055278;28;20446;-67
2023/09/25 04:44:19;;;;;;;1.08;0.88;;;14.30;75.30;;;;;;5055581;28;20411;-67
2023/09/25 04:46:45;;;;;;;0.57;0.57;;;14.30;75.30;;;;;;5054898;28;20029;-67
2023/09/25 04:49:13;;;;;;;0.55;0.55;;;14.30;75.30;;;;;;5044024;28;20048;-67
2023/09/25 04:51:39;;;;;;;1.38;0.63;;;14.30;75.40;;;;;;5059466;28;20268;-67
2023/09/25 04:54:05;;;;;;;1.55;0.77;;;14.30;75.50;;;;;;5059861;28;20029;-67
2023/09/25 04:56:31;;;;;;;0.50;0.50;;;14.30;75.60;;;;;;5060034;28;20033;-68
2023/09/25 04:59:00;;;;;;;2.28;0.60;;;14.30;75.60;;;;;;5055998;28;20032;-67
2023/09/25 05:01:26;;;;;;;2.88;0.70;;;14.20;75.70;;;;;;5054103;28;20040;-67
2023/09/25 05:03:51;;;;;;;1.25;0.70;;;14.30;75.70;;;;;;5055342;28;20033;-67
2023/09/25 05:06:17;;;;;;;0.77;0.65;;;14.30;75.60;;;;;;5058600;28;20535;-67
2023/09/25 05:08:43;;;;;;;0.60;0.60;;;14.30;75.50;;;;;;5067297;28;20082;-67
2023/09/25 05:11:10;;;;;;;0.57;0.40;;;14.30;75.50;;;;;;5059726;28;20025;-67
2023/09/25 05:13:36;;;;;;;1.15;0.82;;;14.30;75.50;;;;;;5063448;28;20119;-70
2023/09/25 05:16:02;;;;;;;0.73;0.50;;;14.30;75.60;;;;;;5064076;28;20103;-70
2023/09/25 05:18:29;;;;;;;1.08;0.70;;;14.30;75.70;;;;;;5067200;28;20013;-70
2023/09/25 05:20:56;;;;;;;1.13;0.82;;;14.20;75.70;;;;;;5058866;28;20499;-70
2023/09/25 05:23:22;;;;;;;0.70;0.35;;;14.20;75.70;;;;;;5061083;28;20044;-70
2023/09/25 05:25:48;;;;;;;1.88;0.63;;;14.20;75.70;;;;;;5068288;28;20507;-70
2023/09/25 05:28:13;;;;;;;0.50;0.50;;;14.20;75.80;;;;;;5066307;28;20032;-70
2023/09/25 05:30:39;;;;;;;1.00;0.52;;;14.10;75.90;;;;;;5062916;28;20033;-70
2023/09/25 05:33:05;;;;;;;0.75;0.45;;;14.10;76.10;;;;;;5064958;28;20352;-70
2023/09/25 05:35:30;;;;;;;0.70;0.60;;;14.10;76.20;;;;;;5032023;28;20025;-67
2023/09/25 05:37:56;;;;;;;0.82;0.52;;;14.10;76.20;;;;;;5051469;28;20479;-67
2023/09/25 05:40:23;;;;;;;0.77;0.70;;;14.10;76.00;;;;;;5060890;28;20078;-67
2023/09/25 05:42:50;;;;;;;1.27;0.93;;;14.10;75.90;;;;;;5061756;28;20499;-67
2023/09/25 05:45:17;;;;;;;2.22;0.60;;;14.20;75.60;;;;;;5062525;28;20029;-70
2023/09/25 05:47:44;;;;;;;2.05;0.60;;;14.40;75.30;;;;;;5060965;28;20155;-68
2023/09/25 05:50:11;;;;;;;1.15;0.70;;;14.40;75.10;;;;;;5058942;28;20029;-67
2023/09/25 05:52:38;;;;;;;0.95;0.52;;;14.50;75.00;;;;;;5045836;28;20036;-67
2023/09/25 05:55:06;;;;;;;1.05;0.52;;;14.50;74.90;;;;;;5058234;28;20482;-67
2023/09/25 05:57:32;;;;;;;0.40;0.40;;;14.60;74.80;;;;;;5055993;28;20454;-67
2023/09/25 05:59:59;;;;;;;0.50;0.50;;;14.60;74.80;;;;;;5050617;28;20064;-67
2023/09/25 06:02:26;;;;;;;1.50;0.60;;;14.70;74.70;;;;;;5068922;28;20399;-67
2023/09/25 06:04:52;;;;;;;0.80;0.47;;;14.70;74.60;;;;;;5054729;28;20061;-70
2023/09/25 06:07:18;;;;;;;1.00;0.68;;;14.80;74.40;;;;;;5061731;28;20072;-70
2023/09/25 06:09:44;;;;;;;0.68;0.60;;;14.80;74.20;;;;;;5058330;28;20082;-67
2023/09/25 06:12:09;;;;;;;2.38;0.63;;;14.80;74.10;;;;;;5056393;28;20021;-70
2023/09/25 06:14:35;;;;;;;1.02;0.95;;;14.90;74.20;;;;;;5065209;28;20043;-70
2023/09/25 06:17:01;;;;;;;1.05;0.52;;;14.90;74.20;;;;;;5046192;28;20051;-70
2023/09/25 06:19:27;;;;;;;0.65;0.57;;;14.90;74.30;;;;;;5046036;28;20024;-70
2023/09/25 06:21:53;;;;;;;0.68;0.68;;;14.90;74.20;;;;;;5048158;28;20059;-70
2023/09/25 06:24:21;;;;;;;1.90;0.65;;;15.00;74.20;;;;;;5058344;28;20058;-68
2023/09/25 06:26:48;;;;;;;1.20;0.85;;;15.00;74.00;;;;;;5063404;28;20036;-68
2023/09/25 06:29:17;;;;;;;1.92;1.38;;;15.10;74.00;;;;;;5064327;28;20025;-67
2023/09/25 06:31:42;;;;;;;1.67;0.70;;;15.10;74.00;;;;;;5026370;28;20017;-72
2023/09/25 06:34:09;;;;;;;2.42;0.98;;;15.10;74.10;;;;;;5059701;28;20055;-74
2023/09/25 06:36:35;;;;;;;2.47;0.60;;;15.10;74.00;;;;;;5066029;28;20029;-80
2023/09/25 06:39:01;;;;;;;0.90;0.70;;;15.20;73.90;;;;;;5048774;28;20116;-73
2023/09/25 06:41:27;;;;;;;0.65;0.52;;;15.30;73.90;;;;;;5045466;28;20037;-64
2023/09/25 06:43:54;;;;;;;1.48;0.60;;;15.30;73.80;;;;;;5043662;28;20348;-68
2023/09/25 06:46:20;;;;;;;0.82;0.73;;;15.40;73.60;;;;;;5060924;28;20145;-67
2023/09/25 06:48:50;;;;;;;2.40;0.80;;;15.40;73.40;;;;;;5060597;28;20032;-67
2023/09/25 06:51:16;;;;;;;0.57;0.57;;;15.50;73.30;;;;;;5057300;28;20099;-67
2023/09/25 06:53:42;;;;;;;1.45;0.50;;;15.60;73.30;;;;;;5041865;28;20384;-68
2023/09/25 06:56:08;;;;;;;0.73;0.50;;;15.60;73.10;;;;;;5062795;28;20314;-68
2023/09/25 06:58:34;;;;;;;0.85;0.80;;;15.60;72.90;;;;;;5055527;28;20447;-66
2023/09/25 07:01:03;;;;;;;0.73;0.50;;;15.70;72.80;;;;;;5058404;28;20112;-65
2023/09/25 07:03:29;;;;;;;1.27;0.90;;;15.80;72.80;;;;;;5031037;28;20040;-67
2023/09/25 07:05:55;;;;;;;0.93;0.60;;;15.80;72.80;;;;;;5042267;28;20405;-66
2023/09/25 07:08:22;;;;;;;1.23;0.68;;;15.90;72.60;;;;;;5062077;28;20036;-66
2023/09/25 07:10:51;;;;;;;0.60;0.50;;;16.00;72.60;;;;;;5049800;28;20383;-66
2023/09/25 07:13:18;;;;;;;1.40;0.90;;;16.10;72.60;;;;;;5063672;28;20356;-66
2023/09/25 07:15:44;;;;;;;0.90;0.40;;;16.20;72.60;;;;;;5056306;28;20466;-66
2023/09/25 07:18:10;;;;;;;0.50;0.40;;;16.20;72.40;;;;;;5063271;28;20056;-67
2023/09/25 07:20:36;;;;;;;0.82;0.63;;;16.30;72.30;;;;;;5059950;28;20025;-66
2023/09/25 07:23:02;;;;;;;0.52;0.52;;;16.40;72.10;;;;;;5058419;28;20808;-70
2023/09/25 07:25:28;;;;;;;0.82;0.60;;;16.40;71.60;;;;;;5059343;28;20025;-67
2023/09/25 07:27:54;;;;;;;0.82;0.82;;;16.40;71.40;;;;;;5061466;28;20063;-67
2023/09/25 07:30:20;;;;;;;0.90;0.65;;;16.50;71.20;;;;;;5033887;28;20037;-67
2023/09/25 07:32:46;;;;;;;1.38;0.60;;;16.50;70.90;;;;;;5050231;28;20111;-68
2023/09/25 07:35:15;;;;;;;0.63;0.52;;;16.60;70.70;;;;;;5048477;28;20102;-66
2023/09/25 07:37:44;;;;;;;1.67;0.47;;;16.60;70.30;;;;;;5066658;28;20033;-67
2023/09/25 07:40:13;;;;;;;0.70;0.70;;;16.60;70.40;;;;;;5064137;28;20021;-67
2023/09/25 07:42:42;;;;;;;0.70;0.60;;;16.60;70.40;;;;;;5053404;28;20033;-67
2023/09/25 07:45:11;;;;;;;0.85;0.52;;;16.60;70.10;;;;;;5062406;28;20060;-69
2023/09/25 07:47:40;;;;;;;2.65;1.00;;;16.70;70.30;;;;;;5058639;28;20111;-70
2023/09/25 07:50:10;;;;;;;0.98;0.70;;;16.70;70.20;;;;;;5064093;28;20552;-69
2023/09/25 07:52:40;;;;;;;1.52;0.82;;;16.70;70.00;;;;;;5065206;28;20024;-69
2023/09/25 07:55:08;;;;;;;0.57;0.57;;;16.80;69.60;;;;;;5049869;28;20059;-69
2023/09/25 07:57:42;;;;;;;1.40;0.90;;;16.80;69.30;;;;;;5061760;28;20020;-69
2023/09/25 08:02:51;;;;;;;0.60;0.60;;;16.80;69.20;;;;;;5065245;28;20060;-69
2023/09/25 08:05:18;;;;;;;1.05;0.95;;;16.90;69.30;;;;;;5058176;28;20129;-69
2023/09/25 08:07:48;;;;;;;1.77;0.65;;;17.00;69.10;;;;;;5056604;28;20466;-69
2023/09/25 08:10:15;;;;;;;1.38;0.80;;;17.00;68.80;;;;;;5061973;28;20020;-67
2023/09/25 08:12:41;;;;;;;1.00;1.00;;;17.20;68.80;;;;;;5040197;28;20028;-68
2023/09/25 08:15:08;;;;;;;0.73;0.40;;;17.20;68.50;;;;;;5062832;28;20336;-67
2023/09/25 08:17:34;;;;;;;0.40;0.40;;;17.30;68.10;;;;;;5059759;28;20035;-69
2023/09/25 08:20:00;;;;;;;0.75;0.70;;;17.40;67.80;;;;;;5065833;28;20024;-69
2023/09/25 08:22:26;;;;;;;1.50;0.70;;;17.40;67.90;;;;;;5063372;28;20032;-69
2023/09/25 08:24:51;;;;;;;0.60;0.60;;;17.50;68.10;;;;;;5064180;28;20474;-69
2023/09/25 08:27:19;;;;;;;0.60;0.55;;;17.50;67.80;;;;;;5064441;28;20028;-69
2023/09/25 08:29:45;;;;;;;0.70;0.52;;;17.60;67.70;;;;;;5068048;28;20123;-69
2023/09/25 08:32:11;;;;;;;0.60;0.60;;;17.70;67.20;;;;;;5068138;28;20036;-69
2023/09/25 08:34:37;;;;;;;2.10;1.10;;;17.80;67.20;;;;;;5064658;28;20049;-69
2023/09/25 08:37:03;;;;;;;0.70;0.68;;;17.80;66.80;;;;;;5060188;28;20124;-69
2023/09/25 08:39:29;;;;;;;0.85;0.60;;;17.90;66.00;;;;;;5049699;28;20029;-69
2023/09/25 08:41:56;;;;;;;1.58;0.82;;;17.90;65.80;;;;;;5055717;28;20384;-69
2023/09/25 08:44:22;;;;;;;0.70;0.70;;;18.00;66.10;;;;;;5052939;28;20032;-69
2023/09/25 08:46:49;;;;;;;1.30;0.65;;;18.10;65.60;;;;;;5069908;28;20094;-67
2023/09/25 08:49:15;;;;;;;1.75;0.77;;;18.10;65.40;;;;;;5064037;28;20072;-67
2023/09/25 08:51:41;;;;;;;1.05;0.85;;;18.20;65.50;;;;;;5068879;28;20545;-67
2023/09/25 08:54:08;;;;;;;1.40;0.50;;;18.20;65.60;;;;;;5071560;28;20052;-67
2023/09/25 08:56:35;;;;;;;1.00;0.60;;;18.40;65.50;;;;;;5070692;28;20078;-67
2023/09/25 08:59:02;;;;;;;1.05;0.52;;;18.50;65.30;;;;;;5056921;28;20037;-68
2023/09/25 09:01:29;;;;;;;1.17;0.60;;;18.80;65.30;;;;;;5069155;28;20032;-67
2023/09/25 09:03:54;;;;;;;0.70;0.70;;;18.90;64.80;;;;;;5062351;28;20060;-67
2023/09/25 09:06:20;;;;;;;1.35;0.70;;;19.00;64.50;;;;;;5068233;28;20068;-67
2023/09/25 09:08:48;;;;;;;1.00;0.68;;;19.20;64.40;;;;;;5034643;28;20024;-67
2023/09/25 09:11:14;;;;;;;4.57;1.30;;;19.30;64.00;;;;;;5069105;28;20017;-67
2023/09/25 09:13:47;;;;;;;1.40;0.55;;;19.30;62.90;;;;;;5066608;28;20029;-69
2023/09/25 09:16:16;;;;;;;0.45;0.40;;;19.40;62.50;;;;;;5068925;28;20020;-69
2023/09/25 09:18:42;;;;;;;1.98;0.85;;;19.50;62.90;;;;;;5070639;28;20016;-69
2023/09/25 09:21:26;;;;;;;2.03;0.70;;;19.60;62.30;;;;;;5055147;28;20058;-66
2023/09/25 09:23:57;;;;;;;0.85;0.60;;;19.70;61.60;;;;;;5069435;28;20126;-66
2023/09/25 09:26:24;;;;;;;1.13;0.75;;;19.70;61.70;;;;;;5061383;28;20059;-67
2023/09/25 09:28:53;;;;;;;0.57;0.50;;;19.90;61.90;;;;;;5064914;28;20021;-69
2023/09/25 09:31:19;;;;;;;1.00;0.80;;;20.00;62.00;;;;;;5069935;28;20410;-67
2023/09/25 09:33:46;;;;;;;0.93;0.70;;;20.10;61.00;;;;;;5052215;28;20060;-69
2023/09/25 09:36:13;;;;;;;1.35;1.00;;;20.20;60.90;;;;;;5053293;28;20028;-69
2023/09/25 09:38:40;;;;;;;2.15;1.20;;;20.30;60.10;;;;;;5047848;28;20525;-67
2023/09/25 09:41:07;;;;;;;0.60;0.60;;;20.40;59.30;;;;;;5067747;28;20027;-67
2023/09/25 09:43:33;;;;;;;0.50;0.50;;;20.40;59.50;;;;;;5065675;28;20094;-68
2023/09/25 09:46:00;;;;;;;0.95;0.88;;;20.60;59.80;;;;;;5064191;28;20021;-67
2023/09/25 09:48:31;;;;;;;1.25;0.85;;;20.70;59.80;;;;;;5069536;28;20481;-67
2023/09/25 09:51:01;;;;;;;2.72;0.88;;;20.80;59.90;;;;;;5064706;28;20471;-67
2023/09/25 09:53:30;;;;;;;1.65;1.15;;;20.90;59.60;;;;;;5066247;28;20017;-67
2023/09/25 09:55:56;;;;;;;0.95;0.95;;;21.10;59.20;;;;;;5050126;28;20035;-67
2023/09/25 09:58:27;;;;;;;2.72;0.90;;;21.20;59.10;;;;;;5062133;28;20497;-69
2023/09/25 10:00:57;;;;;;;1.77;0.75;;;21.30;59.00;;;;;;5066721;28;20021;-69
2023/09/25 10:03:25;;;;;;;0.98;0.88;;;21.40;59.10;;;;;;5051214;28;20063;-69
2023/09/25 10:05:51;;;;;;;0.75;0.70;;;21.50;59.10;;;;;;5066474;28;20510;-69
2023/09/25 10:08:17;;;;;;;0.70;0.63;;;21.50;58.20;;;;;;5051772;28;20025;-67
2023/09/25 10:10:48;;;;;;;1.95;1.38;;;21.50;58.50;;;;;;5068139;28;20032;-68
2023/09/25 10:13:26;;;;;;;1.10;0.93;;;21.60;57.10;;;;;;5046223;28;20025;-68
2023/09/25 10:15:58;;;;;;;0.90;0.80;;;21.60;57.50;;;;;;5065007;28;20435;-68
2023/09/25 10:18:30;;;;;;;1.42;1.20;;;21.70;57.50;;;;;;5065867;28;20048;-67
2023/09/25 10:21:15;;;;;;;1.10;0.98;;;21.80;57.90;;;;;;5066064;28;20032;-69
2023/09/25 10:23:45;;;;;;;0.75;0.50;;;21.90;57.90;;;;;;5061139;28;20029;-69
2023/09/25 10:26:25;;;;;;;1.10;0.90;;;22.00;57.80;;;;;;5058320;28;20066;-68
2023/09/25 10:29:18;;;;;;;0.60;0.60;;;22.00;57.90;;;;;;5064583;28;20098;-67
2023/09/25 10:31:47;;;;;;;0.60;0.60;;;22.10;57.70;;;;;;5060211;28;20037;-68
2023/09/25 10:34:13;;;;;;;0.73;0.60;;;22.20;57.90;;;;;;5058471;28;20453;-69
2023/09/25 10:36:42;;;;;;;1.33;0.47;;;22.30;57.60;;;;;;5064961;28;20024;-69
2023/09/25 10:39:08;;;;;;;0.95;0.47;;;22.40;56.70;;;;;;5065426;28;20032;-69
2023/09/25 10:41:36;;;;;;;1.75;0.70;;;22.40;56.70;;;;;;5058339;28;20029;-69
2023/09/25 10:44:03;;;;;;;0.65;0.65;;;22.50;56.90;;;;;;5061095;28;20596;-69
2023/09/25 10:46:28;;;;;;;0.60;0.60;;;22.70;56.70;;;;;;5044792;28;20075;-69
2023/09/25 10:48:54;;;;;;;1.17;0.70;;;22.80;56.30;;;;;;5045792;28;20361;-69
2023/09/25 10:51:20;;;;;;;1.33;0.77;;;22.80;54.60;;;;;;5064889;28;20179;-69
2023/09/25 10:53:46;;;;;;;4.88;1.25;;;22.80;55.20;;;;;;5040368;28;20029;-69
2023/09/25 10:56:12;;;;;;;0.68;0.68;;;22.90;55.70;;;;;;5066719;28;20805;-67
2023/09/25 10:58:38;;;;;;;0.90;0.90;;;23.00;55.60;;;;;;5049556;28;20032;-69
2023/09/25 11:01:04;;;;;;;0.50;0.50;;;23.10;55.40;;;;;;5063836;28;20029;-69
2023/09/25 11:03:34;;;;;;;0.52;0.50;;;23.20;55.00;;;;;;5066013;28;20033;-68
2023/09/25 11:06:00;;;;;;;0.73;0.60;;;23.20;55.10;;;;;;5065537;28;20038;-69
2023/09/25 11:08:26;;;;;;;1.15;0.77;;;23.30;55.20;;;;;;5061666;28;20465;-69
2023/09/25 11:10:52;;;;;;;0.52;0.50;;;23.50;55.00;;;;;;5058678;28;20029;-69
2023/09/25 11:13:20;;;;;;;0.60;0.60;;;23.60;54.90;;;;;;5058819;28;20403;-69
2023/09/25 11:15:46;;;;;;;0.88;0.80;;;23.70;53.70;;;;;;5051222;28;20070;-69
2023/09/25 11:18:12;;;;;;;1.45;0.73;;;23.70;53.10;;;;;;5053298;28;20045;-69
2023/09/25 11:20:38;;;;;;;0.55;0.55;;;23.60;52.90;;;;;;5059113;28;20047;-69
2023/09/25 11:23:17;;;;;;;1.48;0.77;;;23.60;53.30;;;;;;5048586;28;20070;-69
2023/09/25 11:25:46;;;;;;;1.35;0.82;;;23.60;52.30;;;;;;5061438;28;20024;-69
2023/09/25 11:28:13;;;;;;;1.05;0.82;;;23.60;52.20;;;;;;5067018;28;20029;-69
2023/09/25 11:30:41;;;;;;;1.73;0.75;;;23.50;52.20;;;;;;5066921;28;20033;-68
2023/09/25 11:33:09;;;;;;;1.60;0.95;;;23.50;52.50;;;;;;5065123;28;20051;-67
2023/09/25 11:35:38;;;;;;;1.48;0.82;;;23.60;53.00;;;;;;5065850;28;20036;-67
2023/09/25 11:38:20;;;;;;;1.33;0.88;;;23.70;52.90;;;;;;5062666;28;20067;-67
2023/09/25 11:40:46;;;;;;;0.73;0.73;;;23.90;52.60;;;;;;5063806;28;20328;-66
2023/09/25 11:43:12;;;;;;;2.30;0.93;;;24.10;52.30;;;;;;5061908;28;20479;-65
2023/09/25 11:45:41;;;;;;;1.35;0.73;;;24.20;52.10;;;;;;5068407;28;20493;-65
2023/09/25 11:48:14;;;;;;;2.47;1.10;;;24.30;51.70;;;;;;5061221;28;20107;-65
2023/09/25 11:50:40;;;;;;;1.45;0.80;;;24.30;51.80;;;;;;5059334;28;20036;-66
2023/09/25 11:53:06;;;;;;;1.58;1.40;;;24.30;52.40;;;;;;5063801;28;20078;-65
2023/09/25 11:55:33;;;;;;;1.38;0.73;;;24.40;52.00;;;;;;5065730;28;20054;-66
2023/09/25 11:57:58;;;;;;;1.30;0.98;;;24.60;51.40;;;;;;5066151;28;20107;-65
2023/09/25 12:00:27;;;;;;;1.13;1.00;;;24.70;50.80;;;;;;5048226;28;20459;-65
2023/09/25 12:02:54;;;;;;;1.33;0.93;;;24.90;51.20;;;;;;5063377;28;20417;-66
2023/09/25 12:05:20;;;;;;;1.38;0.90;;;25.00;50.30;;;;;;5062488;28;20024;-65
2023/09/25 12:07:47;;;;;;;2.45;1.05;;;25.00;49.90;;;;;;5066095;28;20441;-66
2023/09/25 12:10:17;;;;;;;0.88;0.70;;;24.90;50.30;;;;;;5065206;28;20368;-67
2023/09/25 12:12:44;;;;;;;0.82;0.65;;;24.70;50.80;;;;;;5064421;28;20483;-67
2023/09/25 12:15:12;;;;;;;0.70;0.70;;;24.80;51.20;;;;;;5063332;28;20489;-66
2023/09/25 12:17:38;;;;;;;1.33;1.13;;;24.90;50.70;;;;;;5064402;28;20017;-67
2023/09/25 12:20:15;;;;;;;1.80;0.70;;;24.90;49.70;;;;;;5065923;28;20032;-66
2023/09/25 12:22:45;;;;;;;0.73;0.73;;;25.00;50.30;;;;;;5064906;28;20047;-68
2023/09/25 12:25:16;;;;;;;0.70;0.70;;;25.00;50.00;;;;;;5063983;28;20040;-67
2023/09/25 12:27:43;;;;;;;3.70;0.82;;;24.90;50.10;;;;;;5064040;28;20064;-67
2023/09/25 12:30:14;;;;;;;3.20;0.80;;;24.80;49.20;;;;;;5065033;28;20051;-67
2023/09/25 12:32:41;;;;;;;1.58;1.02;;;24.70;49.50;;;;;;5064164;28;20029;-68
2023/09/25 12:35:15;;;;;;;1.25;0.70;;;24.60;49.70;;;;;;5044039;28;20049;-68
2023/09/25 12:37:44;;;;;;;0.80;0.80;;;24.70;50.70;;;;;;5045330;28;20087;-67
2023/09/25 12:40:10;;;;;;;0.70;0.70;;;24.90;50.20;;;;;;5025717;28;20403;-67
2023/09/25 12:42:36;;;;;;;2.30;1.05;;;24.90;49.50;;;;;;5047348;28;20025;-66
2023/09/25 12:45:04;;;;;;;1.35;0.90;;;24.90;49.80;;;;;;5045990;28;20112;-66
2023/09/25 12:47:30;;;;;;;0.88;0.80;;;25.00;49.90;;;;;;5041838;28;20068;-66
2023/09/25 12:49:56;;;;;;;1.35;0.73;;;25.00;50.40;;;;;;5043504;28;20037;-67